createdAt,value
2018-05-06T00:02:12.512Z,9.93
2018-05-06T00:04:42.693Z,9.63
2018-05-06T00:07:12.954Z,10.97
2018-05-06T00:09:43.123Z,8.97
2018-05-06T00:12:13.326Z,11.10
2018-05-06T00:14:43.286Z,8.70
2018-05-06T00:17:13.347Z,9.43
2018-05-06T00:19:43.524Z,10.00
2018-05-06T00:22:13.769Z,13.00
2018-05-06T00:24:44.077Z,12.43
2018-05-06T00:27:14.367Z,11.70
2018-05-06T00:29:44.618Z,13.77
2018-05-06T00:32:14.949Z,11.87
2018-05-06T00:34:45.203Z,11.53
2018-05-06T00:37:15.460Z,13.83
2018-05-06T00:39:45.683Z,10.27
2018-05-06T00:42:15.923Z,12.57
2018-05-06T00:44:46.078Z,10.63
2018-05-06T00:47:16.216Z,10.10
2018-05-06T00:49:46.349Z,12.07
2018-05-06T00:52:16.695Z,23.20
2018-05-06T00:54:46.936Z,14.20
2018-05-06T00:57:17.159Z,17.83
2018-05-06T00:59:48.369Z,17.77
2018-05-06T01:02:19.760Z,17.63
2018-05-06T01:04:50.023Z,14.40
2018-05-06T01:07:20.423Z,11.93
2018-05-06T01:09:50.647Z,14.60
2018-05-06T01:12:21.073Z,17.37
2018-05-06T01:14:51.213Z,14.40
2018-05-06T01:17:21.504Z,16.83
2018-05-06T01:19:51.525Z,24.57
2018-05-06T01:22:21.788Z,19.30
2018-05-06T01:24:52.009Z,19.40
2018-05-06T01:27:22.160Z,20.40
2018-05-06T01:29:52.370Z,20.63
2018-05-06T01:32:22.782Z,22.40
2018-05-06T01:34:53.029Z,18.23
2018-05-06T01:37:23.293Z,16.33
2018-05-06T01:39:53.546Z,18.77
2018-05-06T01:42:23.682Z,16.97
2018-05-06T01:44:53.965Z,17.80
2018-05-06T01:47:24.248Z,19.47
2018-05-06T01:49:54.524Z,19.00
2018-05-06T01:52:24.685Z,21.67
2018-05-06T01:54:54.968Z,17.57
2018-05-06T01:57:25.332Z,17.23
2018-05-06T01:59:55.630Z,18.30
2018-05-06T02:02:25.930Z,20.07
2018-05-06T02:04:56.137Z,19.40
2018-05-06T02:07:26.231Z,17.77
2018-05-06T02:09:56.511Z,18.20
2018-05-06T02:12:26.894Z,16.13
2018-05-06T02:14:57.220Z,17.30
2018-05-06T02:17:27.492Z,20.43
2018-05-06T02:19:57.653Z,20.67
2018-05-06T02:22:27.996Z,17.60
2018-05-06T02:24:58.146Z,17.50
2018-05-06T02:27:28.427Z,17.70
2018-05-06T02:29:58.510Z,18.13
2018-05-06T02:32:28.730Z,17.77
2018-05-06T02:34:58.922Z,15.43
2018-05-06T02:37:29.091Z,14.73
2018-05-06T02:39:59.389Z,15.10
2018-05-06T02:42:29.650Z,15.20
2018-05-06T02:44:59.855Z,16.60
2018-05-06T02:47:31.139Z,14.73
2018-05-06T02:50:01.513Z,16.03
2018-05-06T02:52:31.704Z,14.00
2018-05-06T02:55:01.890Z,17.67
2018-05-06T02:57:32.137Z,15.23
2018-05-06T03:00:02.220Z,15.47
2018-05-06T03:02:32.487Z,14.83
2018-05-06T03:05:02.585Z,13.83
2018-05-06T03:07:32.264Z,14.60
2018-05-06T03:10:01.900Z,14.07
2018-05-06T03:12:31.453Z,14.23
2018-05-06T03:15:02.151Z,15.47
2018-05-06T03:17:31.835Z,17.83
2018-05-06T03:20:02.513Z,13.13
2018-05-06T03:22:32.033Z,14.20
2018-05-06T03:25:01.687Z,14.63
2018-05-06T03:27:31.457Z,11.43
2018-05-06T03:30:00.986Z,12.43
2018-05-06T03:32:30.639Z,11.53
2018-05-06T03:35:00.547Z,11.63
2018-05-06T03:37:30.258Z,12.80
2018-05-06T03:39:59.979Z,13.83
2018-05-06T03:42:29.613Z,12.33
2018-05-06T03:44:59.300Z,13.10
2018-05-06T03:47:29.012Z,13.90
2018-05-06T03:49:58.807Z,13.30
2018-05-06T03:52:28.547Z,15.00
2018-05-06T03:54:58.317Z,16.83
2018-05-06T03:58:38.380Z,14.10
2018-05-06T04:01:08.125Z,14.80
2018-05-06T04:03:37.807Z,13.90
2018-05-06T04:06:07.621Z,12.03
2018-05-06T04:08:37.390Z,14.60
2018-05-06T04:11:07.161Z,16.17
2018-05-06T04:13:36.772Z,14.77
2018-05-06T04:16:06.431Z,14.63
2018-05-06T04:18:36.185Z,14.77
2018-05-06T04:21:05.893Z,14.57
2018-05-06T04:23:36.709Z,11.60
2018-05-06T04:26:06.405Z,11.07
2018-05-06T04:28:36.248Z,15.20
2018-05-06T04:31:06.027Z,12.10
2018-05-06T04:33:35.609Z,11.47
2018-05-06T04:36:05.339Z,11.80
2018-05-06T04:38:35.130Z,12.77
2018-05-06T04:41:04.836Z,13.00
2018-05-06T04:43:34.602Z,12.40
2018-05-06T04:46:04.283Z,11.27
2018-05-06T04:48:33.892Z,11.83
2018-05-06T04:51:03.654Z,11.50
2018-05-06T04:53:33.473Z,10.10
2018-05-06T04:56:03.264Z,8.87
2018-05-06T04:58:32.875Z,13.03
2018-05-06T05:01:02.538Z,10.33
2018-05-06T05:03:32.309Z,11.50
2018-05-06T05:06:02.052Z,12.17
2018-05-06T05:08:31.786Z,11.10
2018-05-06T05:11:01.621Z,10.27
2018-05-06T05:13:31.328Z,9.33
2018-05-06T05:16:00.833Z,8.70
2018-05-06T05:18:30.579Z,6.20
2018-05-06T05:21:00.270Z,7.80
2018-05-06T05:23:29.864Z,7.47
2018-05-06T05:25:59.603Z,7.03
2018-05-06T05:28:29.263Z,7.97
2018-05-06T05:30:59.004Z,6.57
2018-05-06T05:33:28.706Z,7.97
2018-05-06T05:35:58.506Z,8.70
2018-05-06T05:38:28.299Z,9.23
2018-05-06T05:40:58.059Z,7.27
2018-05-06T05:43:27.778Z,7.03
2018-05-06T05:45:57.631Z,6.93
2018-05-06T05:48:27.284Z,5.67
2018-05-06T05:50:57.002Z,5.43
2018-05-06T05:53:26.724Z,5.43
2018-05-06T05:55:56.365Z,7.17
2018-05-06T05:58:26.086Z,8.77
2018-05-06T06:00:55.796Z,6.63
2018-05-06T06:03:25.556Z,7.07
2018-05-06T06:05:55.266Z,5.47
2018-05-06T06:08:25.218Z,6.03
2018-05-06T06:10:54.879Z,6.13
2018-05-06T06:13:24.588Z,5.30
2018-05-06T06:15:54.287Z,5.87
2018-05-06T06:18:23.960Z,6.93
2018-05-06T06:20:53.751Z,9.00
2018-05-06T06:23:24.442Z,6.07
2018-05-06T06:25:54.121Z,7.47
2018-05-06T06:28:23.843Z,5.73
2018-05-06T06:30:53.461Z,9.77
2018-05-06T06:33:23.415Z,8.20
2018-05-06T06:35:53.036Z,4.60
2018-05-06T06:38:22.787Z,8.03
2018-05-06T06:40:52.549Z,7.23
2018-05-06T06:43:22.265Z,6.17
2018-05-06T06:45:51.906Z,8.27
2018-05-06T06:48:21.680Z,6.13
2018-05-06T06:50:51.369Z,5.93
2018-05-06T06:53:21.151Z,7.77
2018-05-06T06:55:51.068Z,6.27
2018-05-06T06:58:20.885Z,9.50
2018-05-06T07:00:50.503Z,13.00
2018-05-06T07:03:20.262Z,5.33
2018-05-06T07:05:50.044Z,7.30
2018-05-06T07:08:19.847Z,7.80
2018-05-06T07:10:49.623Z,9.17
2018-05-06T07:13:19.365Z,6.37
2018-05-06T07:15:49.021Z,7.13
2018-05-06T07:18:18.869Z,7.80
2018-05-06T07:20:48.443Z,8.07
2018-05-06T07:23:18.413Z,4.83
2018-05-06T07:25:48.171Z,6.93
2018-05-06T07:28:17.790Z,8.27
2018-05-06T07:30:47.473Z,6.93
2018-05-06T07:33:17.105Z,5.00
2018-05-06T07:35:46.832Z,6.53
2018-05-06T07:38:16.625Z,6.13
2018-05-06T07:40:46.349Z,6.57
2018-05-06T07:43:15.937Z,6.37
2018-05-06T07:45:45.657Z,4.03
2018-05-06T07:48:15.355Z,5.33
2018-05-06T07:50:45.046Z,6.33
2018-05-06T07:53:14.658Z,5.63
2018-05-06T07:55:44.403Z,4.87
2018-05-06T07:58:14.123Z,4.57
2018-05-06T08:00:43.720Z,4.57
2018-05-06T08:03:13.533Z,4.07
2018-05-06T08:05:43.063Z,5.13
2018-05-06T08:08:12.815Z,7.10
2018-05-06T08:10:42.661Z,5.03
2018-05-06T08:13:12.466Z,5.27
2018-05-06T08:15:42.208Z,6.30
2018-05-06T08:18:11.859Z,5.50
2018-05-06T08:20:41.597Z,6.87
2018-05-06T08:23:11.202Z,7.67
2018-05-06T08:25:40.887Z,5.57
2018-05-06T08:28:11.728Z,8.33
2018-05-06T08:30:41.458Z,4.53
2018-05-06T08:33:11.254Z,6.03
2018-05-06T08:35:40.825Z,3.60
2018-05-06T08:38:10.445Z,10.00
2018-05-06T08:40:40.206Z,3.53
2018-05-06T08:43:11.025Z,2.93
2018-05-06T08:45:40.864Z,6.43
2018-05-06T08:48:10.514Z,5.10
2018-05-06T08:50:40.317Z,3.83
2018-05-06T08:53:09.958Z,7.60
2018-05-06T08:55:39.477Z,4.43
2018-05-06T08:58:09.204Z,5.63
2018-05-06T09:00:38.898Z,6.93
2018-05-06T09:03:08.575Z,4.83
2018-05-06T09:05:38.314Z,4.67
2018-05-06T09:08:08.883Z,4.10
2018-05-06T09:10:38.626Z,4.70
2018-05-06T09:13:08.214Z,7.07
2018-05-06T09:15:38.004Z,4.97
2018-05-06T09:18:08.706Z,4.27
2018-05-06T09:20:38.357Z,4.57
2018-05-06T09:23:08.319Z,3.73
2018-05-06T09:25:38.068Z,6.13
2018-05-06T09:28:07.840Z,5.03
2018-05-06T09:30:37.763Z,6.20
2018-05-06T09:33:07.493Z,7.37
2018-05-06T09:35:37.313Z,4.83
2018-05-06T09:38:07.025Z,3.50
2018-05-06T09:40:36.745Z,4.53
2018-05-06T09:43:06.123Z,4.93
2018-05-06T09:45:35.796Z,5.33
2018-05-06T09:48:05.525Z,5.50
2018-05-06T09:50:35.405Z,4.47
2018-05-06T09:53:05.198Z,5.07
2018-05-06T09:55:34.986Z,6.00
2018-05-06T09:58:04.843Z,3.60
2018-05-06T10:00:34.611Z,5.10
2018-05-06T10:03:04.471Z,6.07
2018-05-06T10:05:34.092Z,4.53
2018-05-06T10:08:03.829Z,6.80
2018-05-06T10:10:33.622Z,4.13
2018-05-06T10:13:03.276Z,3.87
2018-05-06T10:15:32.868Z,5.50
2018-05-06T10:18:02.634Z,4.33
2018-05-06T10:20:32.395Z,2.93
2018-05-06T10:23:02.089Z,4.33
2018-05-06T10:25:31.897Z,3.43
2018-05-06T10:28:01.589Z,5.60
2018-05-06T10:30:31.391Z,3.80
2018-05-06T10:33:01.041Z,4.67
2018-05-06T10:35:31.853Z,2.77
2018-05-06T10:38:01.550Z,3.13
2018-05-06T10:40:31.295Z,6.53
2018-05-06T10:43:01.014Z,3.63
2018-05-06T10:45:30.852Z,3.63
2018-05-06T10:48:00.506Z,3.70
2018-05-06T10:50:30.237Z,2.60
2018-05-06T10:52:59.843Z,5.73
2018-05-06T10:55:29.638Z,3.40
2018-05-06T10:57:59.280Z,7.87
2018-05-06T11:00:28.940Z,3.83
2018-05-06T11:02:58.775Z,5.93
2018-05-06T11:05:28.452Z,4.63
2018-05-06T11:07:58.175Z,4.73
2018-05-06T11:10:27.988Z,4.53
2018-05-06T11:12:57.645Z,2.33
2018-05-06T11:15:27.243Z,5.77
2018-05-06T11:17:56.904Z,3.50
2018-05-06T11:20:26.529Z,2.37
2018-05-06T11:22:58.372Z,5.57
2018-05-06T11:25:27.988Z,3.00
2018-05-06T11:27:57.720Z,2.23
2018-05-06T11:30:27.573Z,2.00
2018-05-06T11:32:57.243Z,3.57
2018-05-06T11:35:26.959Z,3.53
2018-05-06T11:37:56.721Z,4.93
2018-05-06T11:40:26.331Z,3.00
2018-05-06T11:42:55.997Z,2.90
2018-05-06T11:45:25.853Z,4.13
2018-05-06T11:47:55.533Z,2.90
2018-05-06T11:50:25.267Z,3.80
2018-05-06T11:52:55.158Z,2.72
2018-05-06T11:55:24.804Z,3.05
2018-05-06T11:57:54.526Z,2.83
2018-05-06T12:00:24.150Z,3.98
2018-05-06T12:02:54.050Z,5.37
2018-05-06T12:05:23.851Z,6.85
2018-05-06T12:07:53.601Z,3.08
2018-05-06T12:10:24.269Z,2.37
2018-05-06T12:12:54.080Z,3.50
2018-05-06T12:15:23.742Z,3.22
2018-05-06T12:17:53.554Z,3.15
2018-05-06T12:20:23.212Z,3.62
2018-05-06T12:22:53.115Z,5.45
2018-05-06T12:25:22.957Z,3.22
2018-05-06T12:27:52.758Z,5.58
2018-05-06T12:30:22.639Z,4.28
2018-05-06T12:32:52.328Z,3.27
2018-05-06T12:35:23.060Z,4.33
2018-05-06T12:37:52.780Z,3.58
2018-05-06T12:40:22.482Z,3.05
2018-05-06T12:42:52.146Z,2.85
2018-05-06T12:45:21.866Z,3.52
2018-05-06T12:47:51.704Z,3.90
2018-05-06T12:50:21.504Z,3.45
2018-05-06T12:52:51.266Z,4.75
2018-05-06T12:55:21.045Z,7.00
2018-05-06T12:57:50.868Z,2.22
2018-05-06T13:00:20.569Z,3.10
2018-05-06T13:02:50.427Z,2.22
2018-05-06T13:05:20.071Z,1.90
2018-05-06T13:07:49.800Z,2.52
2018-05-06T13:10:19.791Z,2.15
2018-05-06T13:12:49.553Z,2.62
2018-05-06T13:15:19.290Z,2.95
2018-05-06T13:17:49.064Z,3.40
2018-05-06T13:20:18.906Z,3.87
2018-05-06T13:22:48.767Z,2.77
2018-05-06T13:25:18.317Z,4.08
2018-05-06T13:27:48.278Z,4.17
2018-05-06T13:30:17.908Z,2.92
2018-05-06T13:32:47.665Z,2.50
2018-05-06T13:35:17.420Z,2.83
2018-05-06T13:37:47.009Z,2.50
2018-05-06T13:40:16.800Z,2.15
2018-05-06T13:42:46.801Z,2.92
2018-05-06T13:45:16.540Z,5.10
2018-05-06T13:47:46.513Z,1.60
2018-05-06T13:50:16.242Z,7.87
2018-05-06T13:52:45.973Z,2.40
2018-05-06T13:55:15.775Z,2.62
2018-05-06T13:57:45.804Z,2.83
2018-05-06T14:00:15.547Z,3.17
2018-05-06T14:02:45.239Z,3.47
2018-05-06T14:05:15.056Z,7.60
2018-05-06T14:07:44.833Z,2.67
2018-05-06T14:10:14.472Z,2.05
2018-05-06T14:12:44.338Z,3.25
2018-05-06T14:15:14.020Z,2.20
2018-05-06T14:17:43.830Z,3.35
2018-05-06T14:20:13.645Z,1.52
2018-05-06T14:22:43.355Z,3.02
2018-05-06T14:25:13.020Z,3.75
2018-05-06T14:27:42.787Z,5.30
2018-05-06T14:30:12.572Z,3.80
2018-05-06T14:32:42.278Z,3.55
2018-05-06T14:35:12.147Z,3.40
2018-05-06T14:37:41.792Z,3.95
2018-05-06T14:43:20.830Z,3.27
2018-05-06T14:45:50.572Z,4.05
2018-05-06T14:48:20.442Z,3.47
2018-05-06T14:50:51.095Z,6.67
2018-05-06T14:53:20.753Z,3.72
2018-05-06T14:55:50.547Z,5.12
2018-05-06T14:58:20.253Z,3.55
2018-05-06T15:00:50.895Z,5.15
2018-05-06T15:03:20.706Z,8.83
2018-05-06T15:05:50.428Z,3.30
2018-05-06T15:08:21.087Z,7.12
2018-05-06T15:10:50.911Z,6.47
2018-05-06T15:13:20.610Z,3.47
2018-05-06T15:15:50.313Z,2.83
2018-05-06T15:18:20.060Z,2.97
2018-05-06T15:20:49.730Z,3.93
2018-05-06T15:23:19.533Z,2.70
2018-05-06T15:25:49.233Z,3.13
2018-05-06T15:28:19.054Z,4.63
2018-05-06T15:30:48.789Z,4.33
2018-05-06T15:33:18.798Z,12.60
2018-05-06T15:35:48.527Z,5.43
2018-05-06T15:38:18.379Z,4.07
2018-05-06T15:40:48.088Z,2.97
2018-05-06T15:43:17.900Z,3.17
2018-05-06T15:45:47.644Z,3.37
2018-05-06T15:48:17.302Z,4.23
2018-05-06T15:50:47.101Z,3.53
2018-05-06T15:53:16.816Z,3.90
2018-05-06T15:55:46.607Z,3.92
2018-05-06T15:58:16.440Z,4.97
2018-05-06T16:00:46.154Z,4.85
2018-05-06T16:03:26.827Z,2.85
2018-05-06T16:05:56.469Z,4.53
2018-05-06T16:08:26.308Z,4.12
2018-05-06T16:10:55.979Z,1.90
2018-05-06T16:13:25.671Z,2.75
2018-05-06T16:15:55.390Z,3.55
2018-05-06T16:18:24.971Z,2.02
2018-05-06T16:20:54.652Z,3.00
2018-05-06T16:23:25.483Z,6.50
2018-05-06T16:25:55.145Z,3.50
2018-05-06T16:28:24.825Z,3.90
2018-05-06T16:30:54.475Z,5.15
2018-05-06T16:33:24.374Z,3.12
2018-05-06T16:35:54.127Z,3.92
2018-05-06T16:38:24.019Z,2.85
2018-05-06T16:40:53.757Z,2.70
2018-05-06T16:43:23.438Z,4.25
2018-05-06T16:45:53.318Z,6.22
2018-05-06T16:48:23.028Z,3.65
2018-05-06T16:50:52.903Z,4.08
2018-05-06T16:53:22.532Z,2.95
2018-05-06T16:55:52.615Z,3.17
2018-05-06T16:58:22.172Z,4.80
2018-05-06T17:00:51.982Z,4.33
2018-05-06T17:03:21.879Z,2.33
2018-05-06T17:05:51.806Z,2.75
2018-05-06T17:08:21.730Z,2.80
2018-05-06T17:10:51.309Z,4.97
2018-05-06T17:13:20.977Z,3.25
2018-05-06T17:15:50.750Z,2.95
2018-05-06T17:18:20.573Z,4.37
2018-05-06T17:20:50.430Z,3.53
2018-05-06T17:23:20.132Z,3.27
2018-05-06T17:25:49.821Z,4.63
2018-05-06T17:28:19.604Z,3.17
2018-05-06T17:30:49.114Z,3.57
2018-05-06T17:33:19.117Z,3.90
2018-05-06T17:35:48.854Z,3.73
2018-05-06T17:38:18.613Z,4.90
2018-05-06T17:40:48.311Z,4.97
2018-05-06T17:43:18.129Z,4.03
2018-05-06T17:45:47.739Z,3.73
2018-05-06T17:48:17.487Z,4.07
2018-05-06T17:50:47.273Z,3.43
2018-05-06T17:53:16.999Z,6.17
2018-05-06T17:55:46.946Z,4.57
2018-05-06T17:58:16.738Z,5.97
2018-05-06T18:00:46.514Z,4.27
2018-05-06T18:03:16.232Z,4.23
2018-05-06T18:05:46.065Z,4.60
2018-05-06T18:08:15.857Z,4.60
2018-05-06T18:10:45.566Z,5.13
2018-05-06T18:13:15.265Z,4.87
2018-05-06T18:15:45.031Z,4.70
2018-05-06T18:18:14.696Z,5.80
2018-05-06T18:20:44.618Z,7.77
2018-05-06T18:23:14.287Z,30.63
2018-05-06T18:25:43.921Z,8.53
2018-05-06T18:28:13.743Z,9.50
2018-05-06T18:30:43.435Z,23.97
2018-05-06T18:33:13.129Z,19.37
2018-05-06T18:35:42.876Z,14.90
2018-05-06T18:38:12.624Z,13.80
2018-05-06T18:40:42.458Z,10.33
2018-05-06T18:43:12.266Z,6.13
2018-05-06T18:45:41.985Z,6.73
2018-05-06T18:48:11.699Z,9.60
2018-05-06T18:50:41.389Z,7.87
2018-05-06T18:53:11.268Z,8.63
2018-05-06T18:55:40.923Z,9.50
2018-05-06T18:58:10.651Z,6.40
2018-05-06T19:00:40.362Z,12.87
2018-05-06T19:03:10.173Z,8.37
2018-05-06T19:05:39.906Z,10.77
2018-05-06T19:08:09.786Z,8.23
2018-05-06T19:10:39.878Z,8.83
2018-05-06T19:13:09.693Z,9.90
2018-05-06T19:15:39.669Z,12.00
2018-05-06T19:18:09.408Z,8.83
2018-05-06T19:20:39.097Z,9.67
2018-05-06T19:23:08.899Z,10.77
2018-05-06T19:25:38.723Z,9.03
2018-05-06T19:28:08.623Z,13.50
2018-05-06T19:30:38.634Z,13.60
2018-05-06T19:33:08.400Z,13.73
2018-05-06T19:35:38.263Z,15.90
2018-05-06T19:38:08.386Z,9.53
2018-05-06T19:40:38.116Z,14.97
2018-05-06T19:43:07.775Z,10.80
2018-05-06T19:45:37.560Z,7.77
2018-05-06T19:48:07.337Z,11.07
2018-05-06T19:50:37.090Z,13.03
2018-05-06T19:53:06.810Z,8.23
2018-05-06T19:55:36.661Z,8.03
2018-05-06T19:58:06.362Z,11.50
2018-05-06T20:00:36.044Z,8.73
2018-05-06T20:03:05.912Z,14.83
2018-05-06T20:05:35.583Z,16.87
2018-05-06T20:08:05.423Z,20.90
2018-05-06T20:10:35.217Z,14.23
2018-05-06T20:13:05.016Z,12.50
2018-05-06T20:15:34.893Z,7.83
2018-05-06T20:18:04.717Z,8.77
2018-05-06T20:20:34.509Z,7.97
2018-05-06T20:23:04.290Z,7.33
2018-05-06T20:25:33.977Z,7.87
2018-05-06T20:28:03.709Z,12.90
2018-05-06T20:30:33.400Z,7.97
2018-05-06T20:33:03.140Z,7.53
2018-05-06T20:35:32.973Z,10.10
2018-05-06T20:38:02.602Z,8.70
2018-05-06T20:40:32.405Z,13.33
2018-05-06T20:43:02.085Z,11.83
2018-05-06T20:45:31.777Z,9.87
2018-05-06T20:48:01.486Z,13.07
2018-05-06T20:50:31.044Z,13.70
2018-05-06T20:53:00.811Z,10.27
2018-05-06T20:55:30.589Z,10.07
2018-05-06T20:58:00.266Z,11.87
2018-05-06T21:00:29.974Z,10.03
2018-05-06T21:02:59.772Z,10.93
2018-05-06T21:05:29.251Z,7.73
2018-05-06T21:07:58.902Z,8.90
2018-05-06T21:10:28.719Z,10.23
2018-05-06T21:12:58.528Z,10.07
2018-05-06T21:15:28.167Z,10.10
2018-05-06T21:18:01.726Z,9.67
2018-05-06T21:20:31.506Z,8.33
2018-05-06T21:23:01.136Z,9.13
2018-05-06T21:25:30.798Z,7.83
2018-05-06T21:28:00.591Z,11.83
2018-05-06T21:30:31.198Z,12.40
2018-05-06T21:33:00.832Z,10.43
2018-05-06T21:35:30.696Z,12.67
2018-05-06T21:38:00.343Z,11.03
2018-05-06T21:40:29.964Z,12.63
2018-05-06T21:42:59.704Z,9.23
2018-05-06T21:45:29.848Z,12.40
2018-05-06T21:47:59.443Z,9.87
2018-05-06T21:50:29.305Z,12.57
2018-05-06T21:52:58.985Z,8.53
2018-05-06T21:55:28.580Z,11.57
2018-05-06T21:57:58.231Z,14.00
2018-05-06T22:00:27.948Z,8.23
2018-05-06T22:02:57.610Z,9.67
2018-05-06T22:05:27.261Z,10.37
2018-05-06T22:07:57.032Z,9.50
2018-05-06T22:10:26.814Z,11.20
2018-05-06T22:12:56.645Z,14.03
2018-05-06T22:15:26.394Z,11.13
2018-05-06T22:17:56.175Z,7.77
2018-05-06T22:20:25.865Z,10.53
2018-05-06T22:22:55.605Z,12.03
2018-05-06T22:25:25.445Z,10.50
2018-05-06T22:27:55.248Z,10.53
2018-05-06T22:30:24.980Z,9.67
2018-05-06T22:32:54.813Z,8.07
2018-05-06T22:35:24.535Z,9.57
2018-05-06T22:37:54.200Z,9.77
2018-05-06T22:40:23.819Z,7.70
2018-05-06T22:42:53.633Z,8.80
2018-05-06T22:45:23.404Z,11.73
2018-05-06T22:47:52.916Z,8.57
2018-05-06T22:50:22.556Z,8.80
2018-05-06T22:52:52.279Z,8.57
2018-05-06T22:55:21.985Z,10.53
2018-05-06T22:57:51.698Z,9.97
2018-05-06T23:00:21.481Z,10.63
2018-05-06T23:02:51.145Z,8.87
2018-05-06T23:05:20.749Z,8.97
2018-05-06T23:07:50.728Z,10.33
2018-05-06T23:10:20.493Z,9.83
2018-05-06T23:12:50.083Z,8.10
2018-05-06T23:15:19.880Z,12.00
2018-05-06T23:17:49.582Z,7.60
2018-05-06T23:20:19.285Z,9.33
2018-05-06T23:22:48.966Z,7.63
2018-05-06T23:25:18.598Z,8.07
2018-05-06T23:27:48.214Z,7.00
2018-05-06T23:30:17.958Z,9.03
2018-05-06T23:32:47.626Z,8.10
2018-05-06T23:35:17.400Z,9.37
2018-05-06T23:37:47.140Z,8.17
2018-05-06T23:40:16.670Z,7.50
2018-05-06T23:42:46.350Z,8.90
2018-05-06T23:45:16.061Z,10.23
2018-05-06T23:47:45.626Z,10.60
2018-05-06T23:50:15.262Z,11.63
2018-05-06T23:52:45.008Z,8.03
2018-05-06T23:55:14.677Z,6.37
2018-05-06T23:57:44.564Z,8.87
